createdAt,value
2023-12-21T00:00:57.605Z,67.98
2023-12-21T00:03:49.442Z,69.76
2023-12-21T00:06:41.213Z,69.56
2023-12-21T00:09:33.063Z,69.71
2023-12-21T00:12:24.784Z,68.64
2023-12-21T00:15:16.563Z,69.26
2023-12-21T00:18:08.358Z,68.49
2023-12-21T00:21:00.114Z,68.39
2023-12-21T00:23:51.928Z,68.37
2023-12-21T00:26:43.674Z,67.28
2023-12-21T00:29:35.465Z,66.37
2023-12-21T00:32:27.359Z,67.46
2023-12-21T00:35:19.117Z,68.04
2023-12-21T00:38:10.860Z,67.70
2023-12-21T00:41:02.583Z,68.40
2023-12-21T00:43:54.348Z,68.73
2023-12-21T00:46:46.077Z,68.96
2023-12-21T00:49:37.889Z,69.52
2023-12-21T00:52:29.716Z,70.25
2023-12-21T00:55:21.517Z,70.00
2023-12-21T00:58:13.426Z,69.22
2023-12-21T01:01:05.615Z,69.14
2023-12-21T01:03:57.581Z,69.13
2023-12-21T01:06:49.408Z,70.30
2023-12-21T01:09:41.365Z,70.33
2023-12-21T01:12:33.355Z,71.27
2023-12-21T01:15:25.316Z,72.29
2023-12-21T01:18:17.211Z,72.71
2023-12-21T01:21:09.046Z,72.97
2023-12-21T01:24:00.877Z,72.91
2023-12-21T01:26:52.703Z,73.54
2023-12-21T01:29:44.501Z,73.61
2023-12-21T01:32:36.309Z,73.78
2023-12-21T01:35:28.283Z,73.81
2023-12-21T01:38:20.091Z,74.38
2023-12-21T01:41:11.855Z,74.29
2023-12-21T01:44:03.730Z,73.76
2023-12-21T01:46:55.857Z,73.72
2023-12-21T01:49:47.781Z,72.72
2023-12-21T01:52:41.417Z,72.66
2023-12-21T01:55:33.412Z,72.52
2023-12-21T01:58:25.629Z,72.57
2023-12-21T02:01:17.575Z,72.42
2023-12-21T02:04:09.738Z,72.74
2023-12-21T02:07:01.794Z,73.08
2023-12-21T02:09:53.673Z,73.09
2023-12-21T02:12:45.747Z,73.63
2023-12-21T02:15:37.806Z,73.74
2023-12-21T02:18:30.192Z,75.04
2023-12-21T02:21:23.344Z,75.28
2023-12-21T02:24:16.098Z,75.70
2023-12-21T02:27:07.984Z,75.78
2023-12-21T02:29:59.782Z,76.67
2023-12-21T02:32:51.849Z,76.26
2023-12-21T02:35:43.750Z,76.73
2023-12-21T02:38:35.560Z,76.62
2023-12-21T02:41:27.515Z,76.98
2023-12-21T02:44:19.352Z,77.50
2023-12-21T02:47:11.108Z,77.42
2023-12-21T02:50:03.039Z,77.01
2023-12-21T02:52:54.936Z,76.98
2023-12-21T02:55:46.808Z,76.90
2023-12-21T02:58:38.727Z,76.90
2023-12-21T03:01:30.568Z,77.27
2023-12-21T03:04:22.357Z,77.33
2023-12-21T03:07:14.149Z,76.81
2023-12-21T03:10:06.430Z,76.72
2023-12-21T03:12:59.817Z,75.83
2023-12-21T03:15:51.597Z,75.58
2023-12-21T03:18:43.429Z,75.05
2023-12-21T03:21:35.272Z,75.28
2023-12-21T03:24:27.083Z,75.29
2023-12-21T03:27:18.835Z,75.50
2023-12-21T03:30:11.096Z,75.63
2023-12-21T03:33:03.066Z,76.42
2023-12-21T03:35:54.936Z,76.66
2023-12-21T03:38:46.691Z,76.19
2023-12-21T03:41:38.486Z,75.81
2023-12-21T03:44:30.282Z,75.72
2023-12-21T03:47:22.009Z,75.73
2023-12-21T03:50:13.934Z,75.61
2023-12-21T03:53:07.523Z,76.29
2023-12-21T03:55:59.350Z,75.61
2023-12-21T03:58:53.601Z,75.89
2023-12-21T04:01:45.464Z,75.35
2023-12-21T04:04:37.375Z,75.78
2023-12-21T04:07:29.323Z,75.66
2023-12-21T04:10:21.220Z,75.08
2023-12-21T04:13:13.014Z,75.05
2023-12-21T04:16:06.887Z,74.95
2023-12-21T04:18:58.776Z,74.95
2023-12-21T04:21:50.629Z,74.75
2023-12-21T04:24:42.433Z,75.00
2023-12-21T04:27:34.278Z,74.19
2023-12-21T04:30:26.093Z,73.88
2023-12-21T04:33:19.253Z,73.75
2023-12-21T04:36:11.036Z,73.47
2023-12-21T04:39:02.949Z,73.68
2023-12-21T04:41:55.202Z,74.25
2023-12-21T04:44:47.025Z,74.15
2023-12-21T04:47:38.839Z,74.19
2023-12-21T04:50:30.616Z,74.15
2023-12-21T04:53:22.458Z,73.74
2023-12-21T04:56:14.195Z,73.81
2023-12-21T04:59:05.978Z,73.87
2023-12-21T05:01:57.921Z,73.05
2023-12-21T05:04:49.781Z,73.09
2023-12-21T05:07:41.629Z,73.13
2023-12-21T05:10:33.450Z,73.02
2023-12-21T05:13:25.280Z,73.20
2023-12-21T05:16:17.198Z,73.73
2023-12-21T05:19:09.382Z,73.33
2023-12-21T05:22:01.301Z,73.23
2023-12-21T05:24:53.165Z,73.70
2023-12-21T05:27:44.999Z,73.66
2023-12-21T05:30:36.857Z,74.00
2023-12-21T05:33:28.699Z,73.45
2023-12-21T05:36:21.478Z,74.20
2023-12-21T05:39:18.097Z,74.09
2023-12-21T05:42:10.684Z,73.94
2023-12-21T05:45:02.515Z,73.97
2023-12-21T05:47:54.403Z,74.50
2023-12-21T05:50:46.194Z,74.94
2023-12-21T05:53:38.014Z,75.06
2023-12-21T05:56:31.047Z,75.35
2023-12-21T05:59:23.030Z,74.97
2023-12-21T06:02:14.993Z,75.30
2023-12-21T06:05:07.256Z,76.14
2023-12-21T06:07:59.227Z,76.97
2023-12-21T06:10:51.043Z,77.15
2023-12-21T06:13:42.931Z,77.60
2023-12-21T06:16:34.857Z,78.02
2023-12-21T06:19:26.798Z,77.48
2023-12-21T06:22:19.827Z,78.15
2023-12-21T06:25:11.923Z,77.94
2023-12-21T06:28:04.009Z,77.74
2023-12-21T06:30:55.897Z,77.75
2023-12-21T06:33:47.736Z,77.43
2023-12-21T06:36:39.538Z,78.24
2023-12-21T06:39:31.497Z,78.30
2023-12-21T06:42:23.521Z,77.91
2023-12-21T06:45:15.480Z,77.98
2023-12-21T06:48:07.894Z,77.59
2023-12-21T06:50:59.753Z,77.07
2023-12-21T06:53:51.527Z,77.05
2023-12-21T06:56:43.284Z,77.01
2023-12-21T06:59:35.079Z,76.89
2023-12-21T07:02:26.850Z,75.72
2023-12-21T07:05:18.655Z,76.14
2023-12-21T07:08:10.454Z,75.66
2023-12-21T07:11:02.237Z,75.11
2023-12-21T07:13:54.054Z,75.25
2023-12-21T07:16:45.853Z,75.23
2023-12-21T07:19:37.695Z,74.88
2023-12-21T07:22:29.534Z,74.88
2023-12-21T07:25:21.366Z,74.87
2023-12-21T07:28:13.198Z,74.59
2023-12-21T07:31:04.941Z,74.99
2023-12-21T07:33:56.792Z,75.65
2023-12-21T07:36:48.541Z,75.04
2023-12-21T07:39:40.304Z,75.71
2023-12-21T07:42:32.095Z,75.83
2023-12-21T07:45:23.842Z,76.94
2023-12-21T07:48:15.625Z,76.63
2023-12-21T07:51:10.085Z,77.76
2023-12-21T07:54:01.885Z,76.64
2023-12-21T07:56:53.671Z,77.56
2023-12-21T07:59:45.786Z,78.38
2023-12-21T08:02:37.748Z,79.22
2023-12-21T08:05:29.498Z,79.23
2023-12-21T08:08:21.295Z,80.09
2023-12-21T08:11:13.210Z,79.65
2023-12-21T08:14:05.054Z,79.78
2023-12-21T08:16:56.806Z,78.93
2023-12-21T08:19:48.570Z,78.87
2023-12-21T08:22:40.426Z,78.35
2023-12-21T08:25:32.215Z,77.76
2023-12-21T08:28:24.031Z,78.22
2023-12-21T08:31:29.191Z,78.58
2023-12-21T08:34:21.116Z,77.85
2023-12-21T08:37:12.932Z,78.56
2023-12-21T08:40:05.483Z,77.93
2023-12-21T08:42:57.350Z,77.50
2023-12-21T08:45:49.237Z,77.60
2023-12-21T08:48:41.034Z,77.05
2023-12-21T08:51:32.779Z,77.02
2023-12-21T08:54:24.515Z,78.16
2023-12-21T08:57:16.271Z,78.97
2023-12-21T09:00:10.200Z,78.97
2023-12-21T09:03:02.172Z,79.29
2023-12-21T09:05:53.966Z,79.92
2023-12-21T09:08:45.702Z,81.02
2023-12-21T09:11:37.492Z,81.41
2023-12-21T09:14:29.648Z,81.20
2023-12-21T09:17:21.519Z,82.57
2023-12-21T09:20:13.489Z,82.70
2023-12-21T09:23:05.396Z,82.97
2023-12-21T09:25:57.292Z,83.05
2023-12-21T09:28:49.242Z,82.27
2023-12-21T09:31:41.176Z,82.66
2023-12-21T09:34:33.183Z,82.40
2023-12-21T09:37:25.271Z,82.08
2023-12-21T09:40:17.682Z,81.86
2023-12-21T09:43:15.942Z,81.02
2023-12-21T09:46:10.218Z,81.30
2023-12-21T09:49:02.698Z,81.99
2023-12-21T09:51:56.130Z,82.08
2023-12-21T09:54:51.134Z,82.27
2023-12-21T09:57:43.270Z,81.63
2023-12-21T10:00:35.040Z,81.69
2023-12-21T10:03:26.853Z,85.23
2023-12-21T10:06:19.097Z,86.39
2023-12-21T10:09:11.453Z,87.26
2023-12-21T10:12:03.415Z,86.90
2023-12-21T10:15:01.520Z,88.45
2023-12-21T10:17:53.306Z,88.67
2023-12-21T10:20:45.126Z,88.09
2023-12-21T10:23:38.789Z,87.81
2023-12-21T10:26:30.606Z,86.56
2023-12-21T10:29:22.373Z,87.03
2023-12-21T10:32:17.460Z,86.21
2023-12-21T10:35:09.298Z,86.41
2023-12-21T10:38:01.636Z,87.29
2023-12-21T10:40:53.621Z,87.34
2023-12-21T10:43:45.644Z,87.60
2023-12-21T10:46:39.249Z,86.04
2023-12-21T10:49:32.848Z,84.66
2023-12-21T10:52:26.212Z,86.05
2023-12-21T10:55:19.157Z,86.38
2023-12-21T10:58:12.137Z,86.32
2023-12-21T11:01:06.484Z,85.71
2023-12-21T11:03:59.682Z,84.44
2023-12-21T11:06:53.132Z,84.80
2023-12-21T11:09:46.361Z,83.01
2023-12-21T11:12:38.231Z,84.45
2023-12-21T11:15:31.404Z,84.00
2023-12-21T11:18:25.578Z,84.22
2023-12-21T11:21:19.665Z,83.37
2023-12-21T11:24:21.608Z,82.84
2023-12-21T11:27:13.498Z,83.83
2023-12-21T11:30:13.193Z,84.11
2023-12-21T11:33:10.165Z,84.80
2023-12-21T11:36:02.094Z,85.22
2023-12-21T11:38:56.474Z,86.02
2023-12-21T11:41:58.552Z,87.23
2023-12-21T11:44:51.829Z,88.19
2023-12-21T11:47:47.406Z,88.05
2023-12-21T11:50:39.239Z,88.13
2023-12-21T11:53:39.189Z,87.50
2023-12-21T11:56:37.673Z,87.03
2023-12-21T11:59:30.003Z,88.72
2023-12-21T12:02:21.990Z,89.46
2023-12-21T12:05:23.257Z,89.84
2023-12-21T12:08:23.615Z,92.61
2023-12-21T12:11:15.485Z,95.42
2023-12-21T12:14:09.968Z,97.64
2023-12-21T12:17:02.471Z,97.95
2023-12-21T12:19:56.176Z,99.74
2023-12-21T12:22:51.163Z,100.00
2023-12-21T12:25:49.402Z,100.00
2023-12-21T12:28:42.346Z,100.00
2023-12-21T12:31:34.363Z,100.00
2023-12-21T12:34:26.766Z,100.00
2023-12-21T12:37:21.755Z,100.00
2023-12-21T12:40:13.568Z,100.00
2023-12-21T12:43:05.862Z,100.00
2023-12-21T12:45:58.249Z,100.00
2023-12-21T12:48:50.995Z,100.00
2023-12-21T12:51:42.987Z,100.00
2023-12-21T12:54:35.009Z,100.00
2023-12-21T12:57:27.413Z,100.00
2023-12-21T13:00:20.384Z,100.00
2023-12-21T13:03:12.611Z,100.00
2023-12-21T13:06:08.544Z,100.00
2023-12-21T13:09:07.224Z,100.00
2023-12-21T13:11:59.258Z,100.00
2023-12-21T13:14:51.043Z,100.00
2023-12-21T13:17:42.871Z,100.00
2023-12-21T13:20:34.733Z,100.00
2023-12-21T13:23:26.480Z,100.00
2023-12-21T13:26:18.310Z,100.00
2023-12-21T13:29:10.194Z,100.00
2023-12-21T13:32:02.645Z,100.00
2023-12-21T13:34:54.526Z,100.00
2023-12-21T13:37:46.625Z,100.00
2023-12-21T13:40:38.701Z,100.00
2023-12-21T13:43:30.511Z,100.00
2023-12-21T13:46:22.394Z,100.00
2023-12-21T13:49:14.451Z,100.00
2023-12-21T13:52:06.494Z,100.00
2023-12-21T13:54:58.270Z,100.00
2023-12-21T13:57:50.183Z,100.00
2023-12-21T14:00:42.144Z,100.00
2023-12-21T14:03:34.031Z,100.00
2023-12-21T14:06:25.949Z,100.00
2023-12-21T14:09:17.783Z,100.00
2023-12-21T14:12:09.556Z,100.00
2023-12-21T14:15:01.387Z,100.00
2023-12-21T14:17:53.924Z,100.00
2023-12-21T14:20:45.719Z,100.00
2023-12-21T14:23:37.484Z,100.00
2023-12-21T14:26:29.247Z,100.00
2023-12-21T14:29:21.119Z,100.00
2023-12-21T14:32:12.972Z,100.00
2023-12-21T14:35:05.337Z,100.00
2023-12-21T14:37:57.237Z,100.00
2023-12-21T14:40:49.210Z,100.00
2023-12-21T14:43:41.348Z,100.00
2023-12-21T14:46:33.686Z,100.00
2023-12-21T14:49:25.571Z,100.00
2023-12-21T14:52:17.394Z,100.00
2023-12-21T14:55:09.243Z,100.00
2023-12-21T14:58:01.011Z,100.00
2023-12-21T15:00:52.864Z,100.00
2023-12-21T15:03:44.656Z,100.00
2023-12-21T15:06:36.573Z,100.00
2023-12-21T15:09:28.370Z,100.00
2023-12-21T15:12:20.253Z,100.00
2023-12-21T15:15:12.194Z,100.00
2023-12-21T15:18:05.300Z,100.00
2023-12-21T15:20:57.167Z,100.00
2023-12-21T15:23:48.936Z,100.00
2023-12-21T15:26:40.735Z,100.00
2023-12-21T15:29:32.603Z,100.00
2023-12-21T15:32:24.462Z,100.00
2023-12-21T15:35:16.849Z,100.00
2023-12-21T15:38:08.621Z,100.00
2023-12-21T15:41:00.597Z,100.00
2023-12-21T15:43:52.413Z,100.00
2023-12-21T15:46:44.191Z,100.00
2023-12-21T15:49:36.079Z,100.00
2023-12-21T15:52:27.924Z,100.00
2023-12-21T15:55:19.759Z,100.00
2023-12-21T15:58:11.730Z,100.00
2023-12-21T16:01:03.729Z,100.00
2023-12-21T16:03:55.576Z,100.00
2023-12-21T16:06:47.344Z,100.00
2023-12-21T16:09:39.120Z,100.00
2023-12-21T16:12:30.896Z,100.00
2023-12-21T16:15:23.656Z,100.00
2023-12-21T16:18:16.637Z,100.00
2023-12-21T16:21:08.525Z,100.00
2023-12-21T16:24:00.384Z,100.00
2023-12-21T16:26:52.727Z,100.00
2023-12-21T16:29:44.611Z,100.00
2023-12-21T16:32:36.413Z,100.00
2023-12-21T16:35:28.244Z,100.00
2023-12-21T16:38:20.019Z,100.00
2023-12-21T16:41:11.771Z,100.00
2023-12-21T16:44:03.585Z,100.00
2023-12-21T16:46:55.660Z,100.00
2023-12-21T16:49:47.561Z,100.00
2023-12-21T16:52:39.380Z,100.00
2023-12-21T16:55:31.157Z,100.00
2023-12-21T16:58:24.518Z,100.00
2023-12-21T17:01:16.772Z,100.00
2023-12-21T17:04:08.657Z,100.00
2023-12-21T17:07:00.536Z,100.00
2023-12-21T17:09:52.296Z,100.00
2023-12-21T17:12:44.063Z,100.00
2023-12-21T17:15:35.856Z,100.00
2023-12-21T17:18:27.732Z,100.00
2023-12-21T17:21:19.619Z,100.00
2023-12-21T17:24:12.335Z,100.00
2023-12-21T17:27:04.266Z,100.00
2023-12-21T17:29:56.035Z,100.00
2023-12-21T17:32:47.829Z,100.00
2023-12-21T17:35:39.601Z,100.00
2023-12-21T17:38:31.558Z,100.00
2023-12-21T17:41:23.949Z,100.00
2023-12-21T17:44:16.901Z,100.00
2023-12-21T17:47:08.731Z,100.00
2023-12-21T17:50:02.152Z,100.00
2023-12-21T17:52:53.938Z,100.00
2023-12-21T17:55:45.735Z,100.00
2023-12-21T17:58:37.614Z,100.00
2023-12-21T18:01:29.425Z,100.00
2023-12-21T18:04:21.326Z,100.00
2023-12-21T18:07:13.715Z,100.00
2023-12-21T18:10:06.825Z,100.00
2023-12-21T18:12:58.685Z,100.00
2023-12-21T18:15:50.618Z,100.00
2023-12-21T18:18:42.549Z,100.00
2023-12-21T18:21:34.550Z,100.00
2023-12-21T18:24:26.359Z,100.00
2023-12-21T18:27:18.220Z,100.00
2023-12-21T18:30:10.221Z,100.00
2023-12-21T18:33:02.040Z,100.00
2023-12-21T18:35:53.826Z,100.00
2023-12-21T18:38:46.307Z,100.00
2023-12-21T18:41:38.048Z,100.00
2023-12-21T18:44:29.784Z,100.00
2023-12-21T18:47:21.515Z,100.00
2023-12-21T18:50:13.469Z,100.00
2023-12-21T18:53:05.284Z,100.00
2023-12-21T18:55:57.087Z,100.00
2023-12-21T18:58:49.105Z,100.00
2023-12-21T19:01:40.945Z,100.00
2023-12-21T19:04:32.823Z,100.00
2023-12-21T19:07:24.649Z,100.00
2023-12-21T19:10:16.533Z,100.00
2023-12-21T19:13:08.665Z,99.08
2023-12-21T19:16:02.478Z,98.36
2023-12-21T19:18:54.306Z,99.61
2023-12-21T19:21:47.153Z,98.36
2023-12-21T19:24:38.941Z,96.89
2023-12-21T19:27:30.760Z,97.29
2023-12-21T19:30:22.494Z,98.81
2023-12-21T19:33:14.383Z,100.00
2023-12-21T19:36:06.759Z,100.00
2023-12-21T19:38:58.651Z,96.74
2023-12-21T19:41:50.497Z,95.15
2023-12-21T19:44:42.298Z,91.45
2023-12-21T19:47:34.136Z,89.91
2023-12-21T19:50:25.922Z,89.72
2023-12-21T19:53:17.727Z,89.78
2023-12-21T19:56:09.585Z,88.14
2023-12-21T19:59:01.646Z,89.57
2023-12-21T20:01:53.448Z,89.38
2023-12-21T20:04:45.271Z,89.85
2023-12-21T20:07:37.110Z,88.30
2023-12-21T20:10:28.981Z,88.93
2023-12-21T20:13:20.814Z,87.58
2023-12-21T20:16:12.901Z,86.02
2023-12-21T20:19:05.010Z,84.60
2023-12-21T20:21:56.823Z,85.11
2023-12-21T20:24:48.595Z,86.11
2023-12-21T20:27:40.454Z,87.01
2023-12-21T20:30:32.194Z,87.65
2023-12-21T20:33:23.961Z,86.51
2023-12-21T20:36:15.732Z,85.11
2023-12-21T20:39:07.522Z,83.43
2023-12-21T20:41:59.289Z,83.29
2023-12-21T20:44:51.061Z,83.29
2023-12-21T20:47:46.093Z,84.00
2023-12-21T20:50:38.245Z,84.52
2023-12-21T20:53:30.024Z,79.53
2023-12-21T20:56:21.773Z,80.97
2023-12-21T20:59:13.607Z,76.63
2023-12-21T21:02:05.395Z,73.24
2023-12-21T21:04:57.308Z,74.28
2023-12-21T21:07:49.379Z,75.94
2023-12-21T21:10:41.331Z,75.49
2023-12-21T21:13:33.193Z,75.32
2023-12-21T21:16:25.008Z,74.44
2023-12-21T21:19:16.911Z,73.47
2023-12-21T21:22:08.748Z,72.63
2023-12-21T21:25:00.552Z,75.07
2023-12-21T21:27:52.333Z,75.04
2023-12-21T21:30:56.694Z,73.58
2023-12-21T21:33:52.347Z,74.35
2023-12-21T21:36:44.166Z,76.01
2023-12-21T21:39:36.653Z,77.99
2023-12-21T21:42:28.411Z,78.83
2023-12-21T21:45:20.253Z,78.64
2023-12-21T21:48:12.284Z,76.84
2023-12-21T21:51:06.073Z,76.15
2023-12-21T21:53:57.861Z,76.46
2023-12-21T21:56:49.654Z,79.82
2023-12-21T21:59:41.521Z,78.93
2023-12-21T22:02:34.542Z,80.30
2023-12-21T22:05:26.481Z,79.13
2023-12-21T22:08:18.343Z,78.82
2023-12-21T22:11:10.167Z,77.51
2023-12-21T22:14:03.043Z,77.92
2023-12-21T22:16:54.836Z,72.85
2023-12-21T22:19:46.713Z,79.43
2023-12-21T22:22:38.531Z,78.05
2023-12-21T22:25:30.493Z,79.60
2023-12-21T22:28:22.331Z,78.69
2023-12-21T22:31:14.877Z,80.91
2023-12-21T22:34:06.693Z,87.94
2023-12-21T22:36:58.492Z,92.35
2023-12-21T22:39:50.288Z,91.70
2023-12-21T22:42:42.063Z,88.91
2023-12-21T22:45:33.958Z,90.52
2023-12-21T22:48:26.507Z,92.17
2023-12-21T22:51:18.371Z,92.06
2023-12-21T22:54:10.127Z,87.03
2023-12-21T22:57:03.342Z,88.31
2023-12-21T22:59:55.179Z,88.22
2023-12-21T23:02:46.959Z,84.68
2023-12-21T23:05:38.776Z,83.71
2023-12-21T23:08:30.527Z,82.16
2023-12-21T23:11:22.428Z,83.77
2023-12-21T23:14:14.224Z,82.20
2023-12-21T23:17:05.954Z,79.54
2023-12-21T23:19:57.920Z,80.13
2023-12-21T23:22:50.050Z,81.39
2023-12-21T23:25:42.202Z,81.44
2023-12-21T23:28:34.024Z,82.72
2023-12-21T23:31:29.376Z,84.57
2023-12-21T23:34:21.178Z,82.40
2023-12-21T23:37:13.636Z,81.54
2023-12-21T23:40:10.321Z,83.11
2023-12-21T23:43:02.670Z,85.55
2023-12-21T23:45:54.390Z,89.13
2023-12-21T23:48:46.185Z,88.98
2023-12-21T23:51:38.479Z,86.77
2023-12-21T23:54:30.286Z,86.61
2023-12-21T23:57:22.076Z,84.12
